Tuesday, July 23, 2019, 10:17 PM EDT
Back to Local

KEEN, Keene, Dillant-hopkins Airport

Location: Keene, NH, United States Lat: 42.9
Local Time: 10:17 PM EDT ( 2:17 GMT) Lon: -72.267
Time Zone: US/Eastern Elev: 488 ft

Show me the last for .
Show Decoded

2019-07-23 21:56 METAR KEEN 240156Z AUTO 00000KT 10SM CLR 17/17 A2994 RMK AO2 SLP140 T01720172 $
                 =
2019-07-23 20:56 METAR KEEN 240056Z AUTO 00000KT 10SM CLR 18/17 A2993 RMK AO2 SLP137 T01780172 $
                 =
2019-07-23 19:56 METAR KEEN 232356Z AUTO 00000KT 10SM SCT110 19/18 A2992 RMK AO2 SLP133 6////
                 T01940178 10233 20194 53012 $ =
2019-07-23 18:56 METAR KEEN 232256Z AUTO 14003KT 10SM CLR 22/17 A2989 RMK AO2 SLP125 T02170172 $
                 =
2019-07-23 17:56 METAR KEEN 232156Z AUTO 24004KT 10SM FEW095 22/15 A2989 RMK AO2 SLP122 T02220150
                 $ =
2019-07-23 16:56 METAR KEEN 232056Z AUTO 00000KT 10SM FEW110 23/15 A2988 RMK AO2 SLP120 6////
                 T02280150 50004 $ =
2019-07-23 15:56 METAR KEEN 231956Z AUTO 34005KT 10SM FEW029 BKN085 OVC100 22/15 A2989 RMK AO2
                 SLP123 T02170150 $ =
2019-07-23 15:27 METAR KEEN 231927Z AUTO VRB04KT 10SM SCT025 BKN033 OVC080 21/16 A2988 RMK AO2 $
                 =
2019-07-23 15:15 METAR KEEN 231915Z AUTO 34005KT 10SM BKN025 BKN031 OVC080 21/15 A2988 RMK AO2 $
                 =
2019-07-23 15:05 METAR KEEN 231905Z AUTO 28004KT 10SM SCT025 BKN031 OVC080 21/16 A2988 RMK AO2 $
                 =
2019-07-23 14:56 METAR KEEN 231856Z AUTO 28003KT 10SM BKN023 BKN031 OVC070 21/16 A2988 RMK AO2
                 SLP119 T02060156 $ =
2019-07-23 13:56 METAR KEEN 231756Z AUTO 32003KT 10SM OVC023 20/15 A2987 RMK AO2 SLP117 60011
                 T02000150 10200 20167 50006 $ =
2019-07-23 13:33 METAR KEEN 231733Z AUTO 34004KT 10SM SCT020 BKN025 OVC065 19/15 A2987 RMK AO2 $
                 =
2019-07-23 13:05 METAR KEEN 231705Z AUTO VRB03KT 10SM FEW019 SCT040 OVC065 19/14 A2987 RMK AO2 $
                 =
2019-07-23 12:56 METAR KEEN 231656Z AUTO 00000KT 10SM SCT019 BKN026 OVC065 18/14 A2987 RMK AO2
                 RAE07 SLP119 P0000 T01830144 $ =
2019-07-23 11:56 METAR KEEN 231556Z AUTO 00000KT 10SM -RA BKN015 OVC028 17/15 A2987 RMK AO2 RAB26
                 SLP119 P0000 T01670150 $ =
2019-07-23 11:28 METAR KEEN 231528Z AUTO 04004KT 10SM -RA BKN019 OVC030 17/14 A2987 RMK AO2 RAB26
                 P0000 $ =
2019-07-23 10:56 METAR KEEN 231456Z AUTO 05009KT 10SM FEW017 OVC036 17/14 A2985 RMK AO2 RAE44
                 SLP112 P0002 60011 T01670144 53002 $ =
2019-07-23 10:41 METAR KEEN 231441Z AUTO VRB05KT 10SM -RA FEW011 SCT017 OVC036 17/15 A2986 RMK
                 AO2 P0002 $ =
2019-07-23 10:30 METAR KEEN 231430Z AUTO 09005KT 10SM -RA BKN015 OVC034 18/16 A2985 RMK AO2 P0002
                 $ =
2019-07-23 10:22 METAR KEEN 231422Z AUTO VRB04KT 10SM -RA FEW008 SCT015 OVC034 18/17 A2985 RMK
                 AO2 P0002 $ =
2019-07-23 10:10 METAR KEEN 231410Z AUTO 36003KT 8SM RA SCT006 BKN015 OVC036 18/17 A2985 RMK AO2
                 P0001 $ =
2019-07-23 09:56 METAR KEEN 231356Z AUTO 05005KT 10SM -RA BKN006 BKN010 OVC036 18/17 A2985 RMK
                 AO2 CIG 004V009 SLP111 P0004 T01780167 $ =
2019-07-23 09:26 METAR KEEN 231326Z AUTO 35004KT 10SM -RA SCT007 BKN013 OVC018 18/17 A2984 RMK
                 AO2 P0002 $ =
2019-07-23 08:56 METAR KEEN 231256Z AUTO 01004KT 10SM -RA BKN007 OVC015 18/17 A2984 RMK AO2
                 SLP106 P0005 T01780172 $ =
2019-07-23 08:45 METAR KEEN 231245Z AUTO 01004KT 10SM RA FEW009 BKN015 OVC043 18/17 A2984 RMK AO2
                 P0005 $ =
2019-07-23 07:56 METAR KEEN 231156Z AUTO 34004KT 8SM RA 17/17 A2985 RMK AO2 SLP110 P0007 60067
                 70235 T01720172 10172 20167 51014 $ =
2019-07-23 06:56 METAR KEEN 231056Z AUTO 00000KT 6SM RA BR 17/17 A2984 RMK AO2 SLP106 P0007
                 T01720167 $ =
2019-07-23 06:43 METAR KEEN 231043Z AUTO 32003KT 7SM -RA 17/17 A2984 RMK AO2 P0005 $ =
2019-07-23 06:23 METAR KEEN 231023Z AUTO 7SM RA BKN005 BKN021 17/17 A2984 RMK AO2 P0004 $ =
2019-07-23 05:56 METAR KEEN 230956Z AUTO 04003KT 7SM RA SCT009 OVC021 17/17 A2983 RMK AO2 SLP105
                 P0007 T01720167 $ =
2019-07-23 05:40 METAR KEEN 230940Z AUTO 01004KT 8SM RA BKN007 OVC011 17/17 A2983 RMK AO2 CIG
                 004V010 P0003 $ =
2019-07-23 05:26 METAR KEEN 230926Z AUTO 35003KT 10SM -RA OVC005 17/17 A2982 RMK AO2 CIG 003V007
                 P0001 $ =
2019-07-23 04:56 METAR KEEN 230856Z AUTO 34003KT 10SM -RA BKN003 OVC034 17/17 A2981 RMK AO2
                 SLP097 P0017 60046 T01670167 56004 $ =
2019-07-23 04:53 METAR KEEN 230853Z AUTO 00000KT 9SM -RA BKN003 BKN008 OVC034 17/17 A2981 RMK AO2
                 CIG 002V006 P0017 $ =
2019-07-23 04:04 METAR KEEN 230804Z AUTO 00000KT 6SM RA BR SCT003 BKN008 OVC038 17/17 A2981 RMK
                 AO2 CIG 007V012 P0003 $ =
2019-07-23 03:56 METAR KEEN 230756Z AUTO 36003KT 6SM +RA BR BKN003 BKN008 OVC038 17/17 A2981 RMK
                 AO2 SLP097 P0019 T01670167 $ =
2019-07-23 03:44 METAR KEEN 230744Z AUTO 01003KT 6SM RA BR BKN003 BKN008 OVC017 17/17 A2981 RMK
                 AO2 P0014 $ =
2019-07-23 03:19 METAR KEEN 230719Z AUTO 35003KT 6SM RA BR FEW003 SCT008 OVC029 17/17 A2982 RMK
                 AO2 P0007 $ =
2019-07-23 02:56 METAR KEEN 230656Z AUTO 01004KT 6SM RA BR FEW004 OVC009 17/17 A2982 RMK AO2
                 RAB03 CIG 007V013 SLP100 P0010 T01670167 $ =
2019-07-23 02:48 METAR KEEN 230648Z AUTO 35003KT 6SM RA BR FEW004 SCT009 OVC012 17/17 A2982 RMK
                 AO2 RAB03 P0008 $ =
2019-07-23 02:37 METAR KEEN 230637Z AUTO 00000KT 5SM RA BR BKN014 OVC035 17/17 A2982 RMK AO2
                 RAB03 P0005 $ =
2019-07-23 01:56 METAR KEEN 230556Z AUTO 00000KT 10SM OVC040 17/17 A2982 RMK AO2 RAE10B33E47
                 SLP100 P0000 60072 T01720167 10183 20172 50001 $ =
2019-07-23 01:45 METAR KEEN 230545Z AUTO 00000KT 10SM -RA SCT020 OVC040 17/17 A2982 RMK AO2
                 RAE10B33 P0000 $ =
2019-07-23 00:56 METAR KEEN 230456Z AUTO 01004KT 10SM -RA OVC018 17/17 A2984 RMK AO2 SLP107 P0003
                 T01720167 402330172 $ =
2019-07-23 00:06 METAR KEEN 230406Z AUTO 35007KT 10SM -RA OVC016 17/17 A2984 RMK AO2 P0001 $ =
2019-07-22 23:56 METAR KEEN 230356Z AUTO 01007KT 10SM -RA BKN014 OVC070 17/17 A2983 RMK AO2
                 SLP103 P0015 T01720167 $ =
2019-07-22 23:45 METAR KEEN 230345Z AUTO 34012KT 9SM -RA BKN012 OVC065 17/17 A2982 RMK AO2 P0015
                 $ =
2019-07-22 22:56 METAR KEEN 230256Z AUTO 15010KT 7SM RA FEW005 OVC049 17/16 A2982 RMK AO2 PRESFR
                 SLP098 P0029 60054 T01720161 58009 $ =
2019-07-22 22:52 METAR KEEN 230252Z AUTO 14007KT 5SM +RA BR SCT005 OVC049 18/17 A2983 RMK AO2
                 PRESFR P0027 $ =
2019-07-22 22:30 METAR KEEN 230230Z AUTO 36005KT 5SM +RA BR OVC005 18/17 A2985 RMK AO2 CIG
                 003V008 P0019 $ =
2019-07-22 22:23 METAR KEEN 230223Z AUTO 02003KT 6SM RA BR BKN003 OVC008 18/17 A2986 RMK AO2
                 P0015 $ =

Support USWX by starting your Amazon purchase here.